This is the latest recevied weather packets stored in our database for station/object W0CHP-13. If no packets are shown the sender has not sent any weather packets the latest 10 day(s).
| Time | Temp. | Humidity | Pressure | Rain* | Wind** | Luminosity | Snow |
|---|---|---|---|---|---|---|---|
| 1778090597 | 9.44° C | 35% | 1014.4 hPa | 0 mm | - | 197 W/m² | - |
| 1778089995 | 9.44° C | 36% | 1014.4 hPa | 0 mm | - | 267 W/m² | - |
| 1778089397 | 9.44° C | 36% | 1014.4 hPa | 0 mm | - | 339 W/m² | - |
| 1778088795 | 8.89° C | 36% | 1014.4 hPa | 0 mm | - | 267 W/m² | - |
| 1778088197 | 8.89° C | 37% | 1014.4 hPa | 0 mm | - | 231 W/m² | - |
| 1778087595 | 8.89° C | 38% | 1014.4 hPa | 0 mm | - | 208 W/m² | - |
| 1778086998 | 8.89° C | 39% | 1014.8 hPa | 0 mm | - | 163 W/m² | - |
| 1778086396 | 8.89° C | 38% | 1014.4 hPa | 0 mm | - | 163 W/m² | - |
| 1778085798 | 8.89° C | 41% | 1014.6 hPa | 0 mm | - | 288 W/m² | - |
| 1778085196 | 8.89° C | 38% | 1014.4 hPa | 0 mm | - | 238 W/m² | - |
| 1778084598 | 8.89° C | 39% | 1014.6 hPa | 0 mm | - | 186 W/m² | - |
| 1778083996 | 8.89° C | 39% | 1014.5 hPa | 0 mm | - | 202 W/m² | - |
| 1778083398 | 8.33° C | 39% | 1014.8 hPa | 0 mm | - | 226 W/m² | - |
| 1778082797 | 9.44° C | 38% | 1014.5 hPa | 0 mm | - | 171 W/m² | - |
| 1778082195 | 9.44° C | 41% | 1014.4 hPa | 0 mm | - | 369 W/m² | - |
| 1778081597 | 10° C | 36% | 1014.4 hPa | 0 mm | - | 272 W/m² | - |
| 1778080995 | 10.56° C | 36% | 1014.2 hPa | 0 mm | - | 251 W/m² | - |
| 1778080397 | 11.11° C | 35% | 1014.4 hPa | 0 mm | - | 548 W/m² | - |
| 1778079795 | 11.11° C | 37% | 1014.8 hPa | 0 mm | - | 311 W/m² | - |
| 1778079197 | 8.33° C | 42% | 1014.9 hPa | 0 mm | - | 289 W/m² | - |
| 1778078595 | 7.78° C | 43% | 1015.1 hPa | 0 mm | - | 156 W/m² | - |
| 1778077997 | 7.22° C | 43% | 1014.8 hPa | 0 mm | - | 172 W/m² | - |
| 1778077396 | 7.78° C | 43% | 1014.8 hPa | 0 mm | - | 197 W/m² | - |
| 1778076798 | 7.78° C | 42% | 1014.8 hPa | 0 mm | - | 178 W/m² | - |
| 1778076196 | 7.78° C | 43% | 1014.8 hPa | 0 mm | - | 206 W/m² | - |
* Rain latest hour (hover to see other rain measurements)
** Current wind speed in m/s (hover to see current wind gust speed)